createdAt,value
2019-04-20T00:00:41.691Z,99709.48
2019-04-20T00:03:05.688Z,99709.00
2019-04-20T00:05:33.014Z,99707.41
2019-04-20T00:08:01.208Z,99712.87
2019-04-20T00:10:28.942Z,99711.48
2019-04-20T00:13:09.063Z,99708.97
2019-04-20T00:15:24.201Z,99710.76
2019-04-20T00:17:55.049Z,99709.31
2019-04-20T00:20:24.159Z,99711.20
2019-04-20T00:23:05.830Z,99711.11
2019-04-20T00:25:46.153Z,99707.23
2019-04-20T00:28:19.930Z,99699.83
2019-04-20T00:30:48.045Z,99694.91
2019-04-20T00:33:07.771Z,99703.17
2019-04-20T00:35:25.184Z,99698.86
2019-04-20T00:37:51.380Z,99700.98
2019-04-20T00:40:17.504Z,99697.48
2019-04-20T00:42:48.871Z,99703.03
2019-04-20T00:45:20.451Z,99695.28
2019-04-20T00:47:48.950Z,99693.52
2019-04-20T00:50:25.657Z,99696.52
2019-04-20T00:52:51.438Z,99695.05
2019-04-20T00:55:06.347Z,99693.98
2019-04-20T00:57:41.869Z,99693.28
2019-04-20T01:00:17.626Z,99694.45
2019-04-20T01:02:40.676Z,99704.05
2019-04-20T01:05:15.591Z,99698.98
2019-04-20T01:07:37.747Z,99698.45
2019-04-20T01:09:54.110Z,99699.72
2019-04-20T01:12:25.915Z,99694.56
2019-04-20T01:14:55.191Z,99699.97
2019-04-20T01:17:16.519Z,99699.76
2019-04-20T01:19:42.640Z,99695.94
2019-04-20T01:22:13.550Z,99702.22
2019-04-20T01:24:43.245Z,99701.02
2019-04-20T01:27:11.196Z,99703.75
2019-04-20T01:29:41.120Z,99698.08
2019-04-20T01:32:10.563Z,99699.59
2019-04-20T01:34:41.836Z,99696.86
2019-04-20T01:37:14.696Z,99704.05
2019-04-20T01:39:34.623Z,99707.52
2019-04-20T01:41:54.255Z,99705.38
2019-04-20T01:44:26.107Z,99702.91
2019-04-20T01:46:54.868Z,99701.82
2019-04-20T01:49:25.607Z,99703.91
2019-04-20T01:51:57.699Z,99706.79
2019-04-20T01:54:34.026Z,99695.63
2019-04-20T01:56:54.908Z,99697.72
2019-04-20T01:59:22.812Z,99694.20
2019-04-20T02:01:42.874Z,99696.89
2019-04-20T02:04:17.170Z,99696.64
2019-04-20T02:06:43.428Z,99697.95
2019-04-20T02:09:11.938Z,99702.88
2019-04-20T02:11:38.223Z,99710.51
2019-04-20T02:14:05.609Z,99710.29
2019-04-20T02:16:58.365Z,99713.55
2019-04-20T02:19:32.154Z,99716.27
2019-04-20T02:22:01.521Z,99716.06
2019-04-20T02:24:14.836Z,99713.70
2019-04-20T02:26:43.021Z,99722.41
2019-04-20T02:29:32.439Z,99722.77
2019-04-20T02:34:40.241Z,99723.35
2019-04-20T02:39:37.551Z,99672.22
2019-04-20T02:44:31.923Z,99710.03
2019-04-20T02:47:19.458Z,99715.73
2019-04-20T02:49:42.690Z,99718.12
2019-04-20T02:51:56.696Z,99716.19
2019-04-20T02:54:18.558Z,99726.87
2019-04-20T02:57:01.757Z,99730.09
2019-04-20T02:59:53.319Z,99735.63
2019-04-20T03:01:36.655Z,99726.63
2019-04-20T03:03:51.016Z,99726.03
2019-04-20T03:06:26.458Z,99730.65
2019-04-20T03:09:09.018Z,99729.34
2019-04-20T03:11:45.205Z,99728.64
2019-04-20T03:13:57.867Z,99731.86
2019-04-20T03:16:45.458Z,99730.70
2019-04-20T03:19:12.977Z,99732.39
2019-04-20T03:21:47.962Z,99735.97
2019-04-20T03:24:22.008Z,99739.09
2019-04-20T03:26:36.500Z,99737.32
2019-04-20T03:29:03.983Z,99733.29
2019-04-20T03:31:54.162Z,99736.72
2019-04-20T03:34:37.608Z,99742.73
2019-04-20T03:36:43.003Z,99736.20
2019-04-20T03:38:57.404Z,99733.78
2019-04-20T03:41:19.604Z,99728.03
2019-04-20T03:43:37.125Z,99722.73
2019-04-20T03:46:08.203Z,99732.34
2019-04-20T03:48:50.280Z,99746.95
2019-04-20T03:51:23.558Z,99727.20
2019-04-20T03:53:43.358Z,99723.61
2019-04-20T03:56:19.554Z,99727.73
2019-04-20T03:58:43.465Z,99728.56
2019-04-20T04:01:12.603Z,99729.08
2019-04-20T04:03:47.285Z,99731.09
2019-04-20T04:06:02.881Z,99736.75
2019-04-20T04:08:26.628Z,99730.09
2019-04-20T04:11:02.638Z,99727.91
2019-04-20T04:13:16.654Z,99728.48
2019-04-20T04:15:50.269Z,99720.51
2019-04-20T04:18:21.855Z,99719.97
2019-04-20T04:20:50.046Z,99725.21
2019-04-20T04:23:32.322Z,99721.74
2019-04-20T04:25:55.694Z,99726.37
2019-04-20T04:28:27.658Z,99728.19
2019-04-20T04:30:57.950Z,99735.27
2019-04-20T04:35:47.896Z,99728.88
2019-04-20T04:38:23.643Z,99733.44
2019-04-20T04:40:56.918Z,99727.88
2019-04-20T04:43:15.817Z,99730.38
2019-04-20T04:45:26.823Z,99730.32
2019-04-20T04:47:51.972Z,99731.67
2019-04-20T04:50:23.276Z,99736.45
2019-04-20T04:52:57.416Z,99736.80
2019-04-20T04:55:27.583Z,99735.24
2019-04-20T04:57:43.343Z,99731.86
2019-04-20T05:00:16.578Z,99736.64
2019-04-20T05:02:45.093Z,99699.52
2019-04-20T05:05:32.339Z,99741.33
2019-04-20T05:07:49.299Z,99732.93
2019-04-20T05:10:05.723Z,99739.84
2019-04-20T05:12:34.167Z,99737.80
2019-04-20T05:15:08.997Z,99740.56
2019-04-20T05:17:50.759Z,99742.77
2019-04-20T05:20:15.095Z,99735.54
2019-04-20T05:22:47.039Z,99734.20
2019-04-20T05:25:10.868Z,99728.91
2019-04-20T05:27:44.106Z,99739.11
2019-04-20T05:29:50.878Z,99737.34
2019-04-20T05:32:29.465Z,99739.70
2019-04-20T05:35:12.369Z,99736.35
2019-04-20T05:37:53.055Z,99742.60
2019-04-20T05:40:09.383Z,99739.50
2019-04-20T05:42:31.227Z,99746.75
2019-04-20T05:44:55.705Z,99710.32
2019-04-20T05:47:27.294Z,99746.80
2019-04-20T05:49:49.972Z,99743.46
2019-04-20T05:52:39.095Z,99739.28
2019-04-20T05:54:51.188Z,99743.95
2019-04-20T05:57:36.176Z,99739.02
2019-04-20T06:00:12.615Z,99738.93
2019-04-20T06:02:32.270Z,99734.58
2019-04-20T06:05:05.636Z,99733.54
2019-04-20T06:07:31.438Z,99741.34
2019-04-20T06:10:00.592Z,99751.47
2019-04-20T06:12:25.440Z,99754.25
2019-04-20T06:14:46.810Z,99746.42
2019-04-20T06:17:25.562Z,99731.11
2019-04-20T06:19:56.028Z,99730.74
2019-04-20T06:22:27.202Z,99736.78
2019-04-20T06:24:55.265Z,99744.88
2019-04-20T06:27:16.039Z,99739.44
2019-04-20T06:29:42.613Z,99732.88
2019-04-20T06:32:17.531Z,99731.72
2019-04-20T06:34:37.724Z,99732.19
2019-04-20T06:37:02.571Z,99736.77
2019-04-20T06:39:40.337Z,99740.73
2019-04-20T06:44:32.053Z,99739.03
2019-04-20T06:47:03.094Z,99738.47
2019-04-20T06:49:33.202Z,99739.08
2019-04-20T06:51:53.171Z,99736.30
2019-04-20T06:54:12.335Z,99736.11
2019-04-20T06:56:54.470Z,99741.22
2019-04-20T06:59:26.514Z,99739.96
2019-04-20T07:01:57.005Z,99747.19
2019-04-20T07:04:37.713Z,99745.05
2019-04-20T07:06:50.581Z,99739.64
2019-04-20T07:09:14.147Z,99741.23
2019-04-20T07:11:44.072Z,99749.58
2019-04-20T07:13:55.625Z,99743.91
2019-04-20T07:16:36.247Z,99737.72
2019-04-20T07:19:07.842Z,99736.08
2019-04-20T07:21:46.374Z,99744.02
2019-04-20T07:24:04.719Z,99739.09
2019-04-20T07:26:29.075Z,99740.63
2019-04-20T07:28:59.033Z,99740.24
2019-04-20T07:31:24.642Z,99739.22
2019-04-20T07:33:52.217Z,99738.08
2019-04-20T07:36:27.976Z,99740.33
2019-04-20T07:38:56.719Z,99739.52
2019-04-20T07:41:26.335Z,99742.73
2019-04-20T07:43:54.134Z,99732.97
2019-04-20T07:46:21.901Z,99731.35
2019-04-20T07:48:36.557Z,99735.40
2019-04-20T07:50:58.178Z,99727.96
2019-04-20T07:53:34.376Z,99732.74
2019-04-20T07:56:04.870Z,99731.86
2019-04-20T07:58:25.193Z,99734.66
2019-04-20T08:01:07.922Z,99731.28
2019-04-20T08:05:52.863Z,99734.48
2019-04-20T08:08:42.233Z,99731.75
2019-04-20T08:10:55.364Z,99742.02
2019-04-20T08:13:33.405Z,99744.15
2019-04-20T08:16:03.079Z,99733.59
2019-04-20T08:18:27.820Z,99732.54
2019-04-20T08:20:52.894Z,99729.44
2019-04-20T08:23:17.047Z,99731.28
2019-04-20T08:25:38.848Z,99725.81
2019-04-20T08:27:52.972Z,99722.42
2019-04-20T08:30:33.647Z,99723.09
2019-04-20T08:33:06.622Z,99727.30
2019-04-20T08:35:39.266Z,99719.19
2019-04-20T08:38:24.168Z,99719.70
2019-04-20T08:40:34.232Z,99715.19
2019-04-20T08:43:14.793Z,99724.19
2019-04-20T08:45:36.159Z,99717.86
2019-04-20T08:48:03.038Z,99713.63
2019-04-20T08:50:42.716Z,99724.73
2019-04-20T08:55:26.632Z,99718.08
2019-04-20T08:57:33.587Z,99717.98
2019-04-20T09:00:03.147Z,99721.18
2019-04-20T09:02:30.303Z,99715.74
2019-04-20T09:05:03.191Z,99713.14
2019-04-20T09:07:29.903Z,99711.80
2019-04-20T09:10:16.599Z,99706.57
2019-04-20T09:12:40.881Z,99716.47
2019-04-20T09:14:50.725Z,99708.29
2019-04-20T09:17:27.183Z,99703.08
2019-04-20T09:19:55.880Z,99707.81
2019-04-20T09:22:24.388Z,99706.04
2019-04-20T09:25:16.494Z,99698.06
2019-04-20T09:27:21.865Z,99708.06
2019-04-20T09:29:54.943Z,99701.14
2019-04-20T09:35:06.674Z,99699.80
2019-04-20T09:37:41.228Z,99723.75
2019-04-20T09:40:11.385Z,99703.86
2019-04-20T09:42:15.399Z,99705.80
2019-04-20T09:44:46.080Z,99703.17
2019-04-20T09:47:11.000Z,99697.52
2019-04-20T09:49:49.810Z,99697.00
2019-04-20T09:52:21.230Z,99695.53
2019-04-20T09:54:52.442Z,99692.59
2019-04-20T09:57:21.771Z,99689.14
2019-04-20T09:59:51.295Z,99690.47
2019-04-20T10:02:07.829Z,99688.50
2019-04-20T10:04:29.091Z,99691.18
2019-04-20T10:07:00.066Z,99682.28
2019-04-20T10:09:30.580Z,99681.83
2019-04-20T10:11:53.250Z,99681.58
2019-04-20T10:14:20.064Z,99682.92
2019-04-20T10:16:47.423Z,99680.06
2019-04-20T10:19:13.846Z,99674.47
2019-04-20T10:21:41.514Z,99676.02
2019-04-20T10:24:08.552Z,99670.70
2019-04-20T10:26:34.837Z,99665.98
2019-04-20T10:29:01.527Z,99664.23
2019-04-20T10:31:28.566Z,99667.84
2019-04-20T10:33:55.770Z,99656.94
2019-04-20T10:36:21.962Z,99676.75
2019-04-20T10:38:48.530Z,99656.36
2019-04-20T10:41:27.766Z,99657.70
2019-04-20T10:43:42.890Z,99654.19
2019-04-20T10:46:09.031Z,99657.68
2019-04-20T10:48:41.363Z,99650.06
2019-04-20T10:51:03.365Z,99650.81
2019-04-20T10:53:30.052Z,99651.93
2019-04-20T10:55:57.641Z,99646.56
2019-04-20T10:58:25.224Z,99648.27
2019-04-20T11:00:51.913Z,99649.64
2019-04-20T11:03:19.648Z,99644.88
2019-04-20T11:05:46.861Z,99645.45
2019-04-20T11:08:14.730Z,99644.02
2019-04-20T11:10:55.694Z,99643.00
2019-04-20T11:13:11.707Z,99634.75
2019-04-20T11:15:38.818Z,99644.00
2019-04-20T11:18:05.491Z,99645.73
2019-04-20T11:20:33.101Z,99639.45
2019-04-20T11:23:00.244Z,99636.58
2019-04-20T11:25:26.627Z,99632.33
2019-04-20T11:27:52.645Z,99635.30
2019-04-20T11:30:20.286Z,99635.01
2019-04-20T11:32:46.539Z,99629.58
2019-04-20T11:35:22.934Z,99626.23
2019-04-20T11:37:41.047Z,99630.60
2019-04-20T11:40:08.675Z,99629.52
2019-04-20T11:42:37.426Z,99621.13
2019-04-20T11:45:08.666Z,99621.11
2019-04-20T11:47:35.637Z,99627.97
2019-04-20T11:52:53.144Z,99614.76
2019-04-20T11:55:20.181Z,99617.51
2019-04-20T11:57:47.185Z,99605.06
2019-04-20T12:00:15.081Z,99601.94
2019-04-20T12:02:44.116Z,99612.87
2019-04-20T12:05:21.164Z,99605.09
2019-04-20T12:08:01.099Z,99601.87
2019-04-20T12:10:28.302Z,99603.11
2019-04-20T12:12:55.894Z,99598.64
2019-04-20T12:15:22.489Z,99602.00
2019-04-20T12:17:49.498Z,99589.67
2019-04-20T12:20:16.704Z,99592.50
2019-04-20T12:22:46.247Z,99583.65
2019-04-20T12:25:35.879Z,99586.55
2019-04-20T12:28:02.315Z,99594.56
2019-04-20T12:30:30.004Z,99578.39
2019-04-20T12:33:00.001Z,99587.31
2019-04-20T12:35:24.562Z,99572.88
2019-04-20T12:37:51.351Z,99572.72
2019-04-20T12:40:19.922Z,99573.84
2019-04-20T12:42:46.631Z,99563.66
2019-04-20T12:45:35.622Z,99563.40
2019-04-20T12:48:01.971Z,99563.71
2019-04-20T12:50:29.735Z,99562.20
2019-04-20T12:52:56.736Z,99559.86
2019-04-20T12:55:23.122Z,99560.80
2019-04-20T12:57:50.319Z,99450.84
2019-04-20T13:00:17.826Z,99556.42
2019-04-20T13:02:45.317Z,99554.31
2019-04-20T13:05:13.491Z,99546.59
2019-04-20T13:07:47.319Z,99545.44
2019-04-20T13:10:11.568Z,99535.73
2019-04-20T13:12:38.586Z,99538.11
2019-04-20T13:15:08.632Z,99541.08
2019-04-20T13:17:34.831Z,99534.45
2019-04-20T13:20:00.852Z,99533.30
2019-04-20T13:22:27.487Z,99529.84
2019-04-20T13:24:54.986Z,99524.16
2019-04-20T13:27:22.835Z,99524.08
2019-04-20T13:29:51.349Z,99527.20
2019-04-20T13:32:18.087Z,99497.03
2019-04-20T13:34:44.574Z,99520.86
2019-04-20T13:37:10.699Z,99512.92
2019-04-20T13:39:36.917Z,99510.19
2019-04-20T13:42:10.298Z,99514.00
2019-04-20T13:44:32.683Z,99503.22
2019-04-20T13:46:58.981Z,99505.81
2019-04-20T13:49:25.222Z,99507.38
2019-04-20T13:51:51.650Z,99505.33
2019-04-20T13:54:23.939Z,99498.78
2019-04-20T13:56:48.029Z,99492.38
2019-04-20T13:59:14.303Z,99490.87
2019-04-20T14:01:41.162Z,99484.72
2019-04-20T14:04:08.494Z,99474.23
2019-04-20T14:06:35.361Z,99476.00
2019-04-20T14:09:01.792Z,99479.09
2019-04-20T14:11:29.763Z,99472.59
2019-04-20T14:14:00.231Z,99466.64
2019-04-20T14:16:25.110Z,99470.17
2019-04-20T14:18:53.211Z,99462.92
2019-04-20T14:21:20.380Z,99459.16
2019-04-20T14:23:46.730Z,99451.43
2019-04-20T14:26:12.880Z,99458.84
2019-04-20T14:28:39.188Z,99456.12
2019-04-20T14:31:05.778Z,99458.38
2019-04-20T14:33:32.760Z,99446.94
2019-04-20T14:35:59.155Z,99450.70
2019-04-20T14:38:26.428Z,99444.08
2019-04-20T14:40:52.667Z,99445.85
2019-04-20T14:43:19.361Z,99418.32
2019-04-20T14:45:46.967Z,99437.08
2019-04-20T14:48:13.294Z,99442.22
2019-04-20T14:50:39.639Z,99437.54
2019-04-20T14:53:07.327Z,99429.50
2019-04-20T14:55:33.643Z,99435.23
2019-04-20T14:57:59.858Z,99429.89
2019-04-20T15:00:44.117Z,99432.38
2019-04-20T15:03:10.548Z,99428.39
2019-04-20T15:05:41.187Z,99423.24
2019-04-20T15:08:08.921Z,99423.33
2019-04-20T15:10:36.497Z,99411.97
2019-04-20T15:13:05.132Z,99422.77
2019-04-20T15:15:32.497Z,99416.95
2019-04-20T15:17:59.693Z,99407.39
2019-04-20T15:20:26.019Z,99418.84
2019-04-20T15:22:53.779Z,99410.62
2019-04-20T15:25:21.046Z,99410.05
2019-04-20T15:27:48.191Z,99399.33
2019-04-20T15:30:16.161Z,99399.23
2019-04-20T15:32:43.081Z,99396.89
2019-04-20T15:35:09.422Z,99401.31
2019-04-20T15:37:35.440Z,99391.14
2019-04-20T15:40:03.312Z,99386.92
2019-04-20T15:42:29.607Z,99393.37
2019-04-20T15:44:55.761Z,99391.83
2019-04-20T15:47:22.346Z,99391.87
2019-04-20T15:49:49.803Z,99382.08
2019-04-20T15:52:25.506Z,99385.73
2019-04-20T15:54:47.605Z,99382.38
2019-04-20T15:57:18.376Z,99388.05
2019-04-20T15:59:42.260Z,99377.42
2019-04-20T16:02:09.398Z,99384.03
2019-04-20T16:04:39.427Z,99387.08
2019-04-20T16:07:03.497Z,99386.07
2019-04-20T16:09:31.621Z,99390.23
2019-04-20T16:12:06.787Z,99380.02
2019-04-20T16:14:35.415Z,99383.66
2019-04-20T16:17:05.027Z,99386.59
2019-04-20T16:19:40.520Z,99381.85
2019-04-20T16:21:57.849Z,99372.34
2019-04-20T16:24:26.113Z,99375.44
2019-04-20T16:26:51.873Z,99372.75
2019-04-20T16:29:17.925Z,99376.91
2019-04-20T16:31:46.689Z,99371.55
2019-04-20T16:34:13.588Z,99367.95
2019-04-20T16:36:51.802Z,99372.23
2019-04-20T16:39:18.518Z,99367.13
2019-04-20T16:41:44.878Z,99371.44
2019-04-20T16:44:11.402Z,99373.03
2019-04-20T16:46:38.338Z,99369.53
2019-04-20T16:49:05.236Z,99359.70
2019-04-20T16:51:32.754Z,99364.07
2019-04-20T16:53:59.502Z,99364.72
2019-04-20T16:56:26.524Z,99363.34
2019-04-20T16:59:04.003Z,99365.11
2019-04-20T17:01:28.107Z,99362.80
2019-04-20T17:04:05.021Z,99358.00
2019-04-20T17:06:34.106Z,99359.23
2019-04-20T17:09:01.031Z,99366.56
2019-04-20T17:11:29.989Z,99335.75
2019-04-20T17:13:59.560Z,99360.92
2019-04-20T17:16:25.687Z,99356.38
2019-04-20T17:18:59.626Z,99352.80
2019-04-20T17:21:28.959Z,99359.70
2019-04-20T17:23:55.429Z,99359.48
2019-04-20T17:26:23.232Z,99357.30
2019-04-20T17:28:52.473Z,99352.81
2019-04-20T17:31:19.774Z,99352.45
2019-04-20T17:33:58.950Z,99350.38
2019-04-20T17:36:22.793Z,99349.60
2019-04-20T17:38:52.558Z,99357.20
2019-04-20T17:41:38.559Z,99347.34
2019-04-20T17:44:01.485Z,99352.44
2019-04-20T17:46:23.692Z,99353.48
2019-04-20T17:48:58.442Z,99350.25
2019-04-20T17:51:27.743Z,99346.73
2019-04-20T17:53:44.609Z,99349.98
2019-04-20T17:56:05.113Z,99350.59
2019-04-20T17:58:35.053Z,99353.59
2019-04-20T18:01:00.305Z,99348.71
2019-04-20T18:04:05.451Z,99345.91
2019-04-20T18:06:17.312Z,99348.41
2019-04-20T18:08:45.865Z,99343.73
2019-04-20T18:11:03.776Z,99347.50
2019-04-20T18:13:26.015Z,99347.30
2019-04-20T18:16:13.621Z,99345.39
2019-04-20T18:18:33.283Z,99351.27
2019-04-20T18:20:45.884Z,99347.77
2019-04-20T18:23:13.389Z,99348.48
2019-04-20T18:26:07.885Z,99350.81
2019-04-20T18:28:18.526Z,99352.23
2019-04-20T18:30:43.581Z,99353.28
2019-04-20T18:33:05.407Z,99350.25
2019-04-20T18:35:34.826Z,99345.23
2019-04-20T18:38:04.640Z,99349.10
2019-04-20T18:40:36.463Z,99350.84
2019-04-20T18:43:04.907Z,99352.66
2019-04-20T18:45:39.508Z,99354.84
2019-04-20T18:48:13.042Z,99371.92
2019-04-20T18:50:27.757Z,99362.02
2019-04-20T18:52:49.898Z,99356.50
2019-04-20T18:55:22.289Z,99361.36
2019-04-20T18:57:44.659Z,99362.84
2019-04-20T19:00:18.428Z,99360.45
2019-04-20T19:02:46.863Z,99358.70
2019-04-20T19:05:09.293Z,99357.20
2019-04-20T19:07:41.480Z,99365.70
2019-04-20T19:10:14.339Z,99368.87
2019-04-20T19:12:41.427Z,99367.41
2019-04-20T19:15:28.205Z,99370.76
2019-04-20T19:17:45.234Z,99376.55
2019-04-20T19:20:04.124Z,99372.56
2019-04-20T19:22:30.285Z,99372.36
2019-04-20T19:24:56.391Z,99379.28
2019-04-20T19:27:30.271Z,99379.91
2019-04-20T19:29:59.673Z,99371.73
2019-04-20T19:32:34.447Z,99369.89
2019-04-20T19:35:03.872Z,99377.43
2019-04-20T19:37:26.079Z,99375.27
2019-04-20T19:40:00.993Z,99378.63
2019-04-20T19:42:33.179Z,99382.03
2019-04-20T19:44:56.512Z,99380.21
2019-04-20T19:47:35.317Z,99382.27
2019-04-20T19:49:56.118Z,99381.04
2019-04-20T19:54:56.837Z,99382.68
2019-04-20T19:57:24.060Z,99382.73
2019-04-20T19:59:39.882Z,99384.56
2019-04-20T20:02:01.036Z,99381.70
2019-04-20T20:04:32.168Z,99348.13
2019-04-20T20:07:03.238Z,99374.59
2019-04-20T20:09:26.002Z,99375.37
2019-04-20T20:11:56.096Z,99375.37
2019-04-20T20:14:28.296Z,99380.34
2019-04-20T20:17:03.891Z,99383.02
2019-04-20T20:19:32.883Z,99382.40
2019-04-20T20:22:00.372Z,99383.89
2019-04-20T20:24:17.429Z,99383.89
2019-04-20T20:26:52.602Z,99382.80
2019-04-20T20:29:23.115Z,99387.59
2019-04-20T20:31:53.942Z,99385.63
2019-04-20T20:34:17.037Z,99383.64
2019-04-20T20:36:47.203Z,99390.24
2019-04-20T20:39:14.674Z,99386.13
2019-04-20T20:41:51.330Z,99390.59
2019-04-20T20:44:22.579Z,99389.27
2019-04-20T20:46:51.185Z,99383.33
2019-04-20T20:49:21.208Z,99388.11
2019-04-20T20:51:54.590Z,99387.94
2019-04-20T20:54:09.927Z,99382.11
2019-04-20T20:56:34.181Z,99386.16
2019-04-20T20:59:04.083Z,99387.23
2019-04-20T21:01:27.984Z,99389.70
2019-04-20T21:03:54.703Z,99385.70
2019-04-20T21:06:22.448Z,99389.64
2019-04-20T21:08:53.648Z,99388.17
2019-04-20T21:11:23.430Z,99401.01
2019-04-20T21:14:04.990Z,99393.97
2019-04-20T21:16:36.394Z,99402.52
2019-04-20T21:19:20.199Z,99397.73
2019-04-20T21:21:42.234Z,99396.05
2019-04-20T21:24:03.158Z,99401.30
2019-04-20T21:26:30.451Z,99391.87
2019-04-20T21:28:52.312Z,99392.46
2019-04-20T21:31:23.696Z,99394.97
2019-04-20T21:33:47.112Z,99395.91
2019-04-20T21:36:18.388Z,99359.39
2019-04-20T21:38:44.335Z,99392.20
2019-04-20T21:41:15.085Z,99398.60
2019-04-20T21:43:41.165Z,99398.84
2019-04-20T21:46:10.124Z,99395.14
2019-04-20T21:48:51.649Z,99400.45
2019-04-20T21:51:22.876Z,99395.43
2019-04-20T21:53:33.595Z,99395.52
2019-04-20T21:55:59.841Z,99400.07
2019-04-20T21:58:32.439Z,99399.11
2019-04-20T22:01:25.279Z,99398.55
2019-04-20T22:03:48.042Z,99404.56
2019-04-20T22:06:16.241Z,99415.71
2019-04-20T22:08:45.924Z,99403.25
2019-04-20T22:11:11.587Z,99400.31
2019-04-20T22:13:42.091Z,99415.75
2019-04-20T22:16:10.526Z,99395.96
2019-04-20T22:18:48.166Z,99392.80
2019-04-20T22:21:12.813Z,99394.20
2019-04-20T22:23:49.233Z,99395.59
2019-04-20T22:26:12.058Z,99399.26
2019-04-20T22:28:27.693Z,99393.95
2019-04-20T22:30:53.963Z,99391.37
2019-04-20T22:33:23.695Z,99392.80
2019-04-20T22:35:54.947Z,99387.55
2019-04-20T22:38:18.877Z,99390.80
2019-04-20T22:40:44.771Z,99383.80
2019-04-20T22:43:12.463Z,99383.37
2019-04-20T22:45:44.053Z,99380.05
2019-04-20T22:48:09.059Z,99378.30
2019-04-20T22:50:50.917Z,99380.50
2019-04-20T22:53:21.667Z,99378.45
2019-04-20T22:55:57.435Z,99381.50
2019-04-20T22:58:09.874Z,99372.95
2019-04-20T23:00:38.632Z,99370.39
2019-04-20T23:03:14.702Z,99371.05
2019-04-20T23:05:42.664Z,99368.99
2019-04-20T23:08:10.840Z,99364.00
2019-04-20T23:10:40.012Z,99363.11
2019-04-20T23:13:05.781Z,99364.78
2019-04-20T23:15:32.621Z,99359.08
2019-04-20T23:18:00.078Z,99355.92
2019-04-20T23:20:30.806Z,99352.84
2019-04-20T23:22:54.889Z,99347.01
2019-04-20T23:25:21.318Z,99353.93
2019-04-20T23:27:51.244Z,99344.42
2019-04-20T23:30:23.343Z,99347.42
2019-04-20T23:32:44.616Z,99339.53
2019-04-20T23:35:16.023Z,99336.88
2019-04-20T23:37:41.551Z,99331.53
2019-04-20T23:40:10.032Z,99330.58
2019-04-20T23:42:40.408Z,99332.31
2019-04-20T23:45:05.687Z,99331.72
2019-04-20T23:47:32.220Z,99327.11
2019-04-20T23:50:15.305Z,99325.92
2019-04-20T23:52:49.094Z,99316.15
2019-04-20T23:55:02.991Z,99312.79
2019-04-20T23:57:24.393Z,99314.80
2019-04-20T23:59:51.995Z,99308.91
